Terminal Aerodrome Forecast
Issued by NWS Cleveland, OH

Home | Current Version | Previous Version | Graphics & Text | Print | Product List | Glossary Off
Versions: 1 2 3 4 5 6 7 8 9 10 11 12 13 14 15 16 17 18 19 20

000
FTUS41 KCLE 241700
TAFCAK
TAF
KCAK 241737Z 2418/2518 16010G15KT 6SM -SHRA BR OVC012
      TEMPO 2418/2420 3SM -SHRA BR OVC030
     FM242000 18015G25KT P6SM OVC012
     FM242300 19018G28KT 4SM -SHRA VCTS OVC010CB
     FM250200 20025G40KT P6SM OVC015
     FM250900 24025G35KT 4SM -SHSN OVC018
     FM251500 25012G25KT 5SM -SHSN BR OVC018=

USA.gov is the U.S. government's official web portal to all federal, state and local government web resources and services.